Time;durP1;ratioP1;P1;durP2;ratioP2;P2;SDS_P1;SDS_P2;PMS_P1;PMS_P2;Temp;Humidity;BMP_temperature;BMP_pressure;BME280_temperature;BME280_humidity;BME280_pressure;Samples;Min_cycle;Max_cycle;Signal;HPM_P1;HPM_P2
2022/11/06 00:02:57;;;;;;;5.63;3.80;;;8.20;99.90;;;;;;6298141;28;20493;-65
2022/11/06 00:09:40;;;;;;;4.10;3.20;;;8.10;99.90;;;;;;6269975;28;20516;-65
2022/11/06 00:12:44;;;;;;;2.70;2.50;;;8.10;99.90;;;;;;6270647;28;20459;-64
2022/11/06 00:15:48;;;;;;;2.93;2.73;;;8.10;99.90;;;;;;6273383;28;20468;-65
2022/11/06 00:18:52;;;;;;;2.63;2.43;;;8.10;99.90;;;;;;6297507;28;20474;-65
2022/11/06 00:21:55;;;;;;;3.73;3.10;;;8.10;99.90;;;;;;6297226;28;20445;-65
2022/11/06 00:24:58;;;;;;;3.60;2.80;;;8.10;99.90;;;;;;6297039;28;20457;-65
2022/11/06 00:28:01;;;;;;;3.10;2.90;;;8.10;99.90;;;;;;6300699;28;20791;-65
2022/11/06 00:31:07;;;;;;;3.27;3.00;;;8.20;99.90;;;;;;6302831;28;20960;-65
2022/11/06 00:34:10;;;;;;;4.33;2.63;;;8.30;99.90;;;;;;6303015;28;20470;-64
2022/11/06 00:37:13;;;;;;;3.33;3.00;;;8.30;99.90;;;;;;6302739;28;20944;-64
2022/11/06 00:40:17;;;;;;;3.13;2.87;;;8.40;99.90;;;;;;6302366;28;20558;-65
2022/11/06 00:43:20;;;;;;;3.77;3.47;;;8.40;99.90;;;;;;6302543;28;20468;-64
2022/11/06 00:46:25;;;;;;;5.30;4.63;;;8.40;99.90;;;;;;6302800;28;20473;-63
2022/11/06 00:49:28;;;;;;;4.80;4.10;;;8.30;99.90;;;;;;6302628;28;20485;-64
2022/11/06 00:52:31;;;;;;;5.00;3.97;;;8.20;99.90;;;;;;6302074;28;20469;-64
2022/11/06 00:55:34;;;;;;;3.80;2.73;;;8.20;99.90;;;;;;6301983;28;20477;-65
2022/11/06 00:58:38;;;;;;;3.03;2.83;;;8.10;99.90;;;;;;6301773;28;20481;-64
2022/11/06 01:01:44;;;;;;;3.27;3.03;;;8.00;99.90;;;;;;6301177;28;20496;-64
2022/11/06 01:04:48;;;;;;;3.90;3.60;;;7.80;99.90;;;;;;6301600;28;20473;-64
2022/11/06 01:07:51;;;;;;;3.00;2.80;;;7.70;99.90;;;;;;6301612;28;20489;-64
2022/11/06 01:10:54;;;;;;;4.23;3.83;;;7.70;99.90;;;;;;6302482;28;20480;-65
2022/11/06 01:13:59;;;;;;;5.80;3.20;;;7.60;99.90;;;;;;6301925;28;20484;-65
2022/11/06 01:17:03;;;;;;;5.33;3.30;;;7.60;99.90;;;;;;6302164;28;20497;-64
2022/11/06 01:20:07;;;;;;;3.10;2.73;;;7.50;99.90;;;;;;6301742;28;20473;-64
2022/11/06 01:23:11;;;;;;;3.80;3.50;;;7.50;99.90;;;;;;6301777;28;20488;-65
2022/11/06 01:26:14;;;;;;;5.57;4.13;;;7.50;99.90;;;;;;6301860;28;20466;-65
2022/11/06 01:29:38;;;;;;;3.30;3.00;;;7.50;99.90;;;;;;6301597;28;20588;-65
2022/11/06 01:32:42;;;;;;;3.40;3.10;;;7.40;99.90;;;;;;6301653;28;20477;-65
2022/11/06 01:35:46;;;;;;;3.80;3.50;;;7.40;99.90;;;;;;6302001;28;20469;-65
2022/11/06 01:38:51;;;;;;;3.43;3.03;;;7.40;99.90;;;;;;6301656;28;20462;-65
2022/11/06 01:41:54;;;;;;;4.90;3.57;;;7.40;99.90;;;;;;6301593;28;20469;-65
2022/11/06 01:45:33;;;;;;;2.70;2.50;;;7.40;99.90;;;;;;6301907;28;20843;-65
2022/11/06 01:48:40;;;;;;;3.50;2.80;;;7.40;99.90;;;;;;6300944;28;20484;-65
2022/11/06 01:51:48;;;;;;;4.50;3.13;;;7.40;99.90;;;;;;6301486;28;20461;-64
2022/11/06 01:54:55;;;;;;;2.90;2.70;;;7.40;99.90;;;;;;6301662;28;20769;-64
2022/11/06 01:58:00;;;;;;;5.10;4.37;;;7.40;99.90;;;;;;6301000;28;20823;-65
2022/11/06 02:01:03;;;;;;;6.47;5.97;;;7.40;99.90;;;;;;6296748;28;20515;-65
2022/11/06 02:04:12;;;;;;;6.30;5.80;;;7.40;99.90;;;;;;6301096;28;20534;-64
2022/11/06 02:07:16;;;;;;;5.63;5.23;;;7.40;99.90;;;;;;6301037;28;20461;-64
2022/11/06 02:10:19;;;;;;;5.00;4.47;;;7.30;99.90;;;;;;6301309;28;20477;-64
2022/11/06 02:13:32;;;;;;;5.63;5.13;;;7.30;99.90;;;;;;6300655;28;20534;-64
2022/11/06 02:16:41;;;;;;;4.40;3.60;;;7.30;99.90;;;;;;6300754;28;20481;-64
2022/11/06 02:20:04;;;;;;;3.70;3.17;;;7.20;99.90;;;;;;6300898;28;20474;-64
2022/11/06 02:23:27;;;;;;;4.13;3.43;;;7.10;99.90;;;;;;6300973;28;20481;-65
2022/11/06 02:26:50;;;;;;;4.57;3.40;;;7.10;99.90;;;;;;6300318;28;20813;-65
2022/11/06 02:30:00;;;;;;;3.33;3.03;;;7.10;99.90;;;;;;6300496;28;20523;-65
2022/11/06 02:33:07;;;;;;;4.60;3.07;;;7.00;99.90;;;;;;6300205;28;20834;-65
2022/11/06 02:36:14;;;;;;;4.17;3.00;;;7.00;99.90;;;;;;6300072;28;20809;-65
2022/11/06 02:39:20;;;;;;;5.13;4.57;;;6.90;99.90;;;;;;6300313;28;20478;-65
2022/11/06 02:42:28;;;;;;;6.20;5.33;;;7.00;99.90;;;;;;6300217;28;20581;-65
2022/11/06 02:45:37;;;;;;;4.13;3.83;;;6.90;99.90;;;;;;6299836;28;20508;-65
2022/11/06 02:48:43;;;;;;;3.80;3.50;;;7.00;99.90;;;;;;6300405;28;20458;-65
2022/11/06 02:51:50;;;;;;;2.80;2.60;;;6.90;99.90;;;;;;6299351;28;20468;-65
2022/11/06 02:55:00;;;;;;;4.87;2.93;;;6.90;99.90;;;;;;6299927;28;20909;-65
2022/11/06 02:58:09;;;;;;;2.50;2.30;;;7.00;99.90;;;;;;6299816;28;20466;-65
2022/11/06 03:01:19;;;;;;;2.83;2.20;;;6.90;99.90;;;;;;6299701;28;20489;-65
2022/11/06 03:04:29;;;;;;;3.83;2.77;;;6.90;99.90;;;;;;6299392;28;20485;-66
2022/11/06 03:07:37;;;;;;;3.20;3.00;;;6.90;99.90;;;;;;6299321;28;20793;-65
2022/11/06 03:10:58;;;;;;;3.27;2.60;;;6.80;99.90;;;;;;6299786;28;20474;-65
2022/11/06 03:14:08;;;;;;;3.80;3.40;;;6.80;99.90;;;;;;6300044;28;20485;-65
2022/11/06 03:17:17;;;;;;;2.43;2.33;;;6.80;99.90;;;;;;6299813;28;20477;-65
2022/11/06 03:20:28;;;;;;;3.07;2.67;;;6.70;99.90;;;;;;6299806;28;20482;-66
2022/11/06 03:23:35;;;;;;;2.57;2.27;;;6.60;99.90;;;;;;6299357;28;20481;-65
2022/11/06 03:26:43;;;;;;;3.07;2.87;;;6.60;99.90;;;;;;6299603;28;20481;-65
2022/11/06 03:29:50;;;;;;;3.13;2.73;;;6.60;99.90;;;;;;6299693;28;20473;-65
2022/11/06 03:32:59;;;;;;;3.10;2.80;;;6.70;99.90;;;;;;6299255;28;20813;-65
2022/11/06 03:36:06;;;;;;;3.10;2.70;;;6.70;99.90;;;;;;6299389;28;20526;-65
2022/11/06 03:39:15;;;;;;;2.87;2.67;;;6.80;99.90;;;;;;6299424;28;20476;-65
2022/11/06 03:42:22;;;;;;;3.40;3.10;;;6.70;99.90;;;;;;6299297;28;20485;-65
2022/11/06 03:45:29;;;;;;;3.77;3.47;;;6.50;99.90;;;;;;6299042;28;20470;-65
2022/11/06 03:48:36;;;;;;;5.50;3.00;;;6.50;99.90;;;;;;6299135;28;20956;-66
2022/11/06 03:51:45;;;;;;;5.43;2.90;;;6.60;99.90;;;;;;6299479;28;20484;-65
2022/11/06 03:54:53;;;;;;;3.00;2.70;;;6.60;99.90;;;;;;6298934;28;20503;-65
2022/11/06 03:58:03;;;;;;;4.43;2.80;;;6.70;99.90;;;;;;6298603;28;20433;-65
2022/11/06 04:01:10;;;;;;;4.03;3.40;;;6.70;99.90;;;;;;6299703;28;20488;-64
2022/11/06 04:04:18;;;;;;;3.20;2.90;;;6.70;99.90;;;;;;6303453;28;20461;-65
2022/11/06 04:07:26;;;;;;;4.20;3.90;;;6.60;99.90;;;;;;6303543;28;20496;-65
2022/11/06 04:14:00;;;;;;;3.00;2.80;;;6.50;99.90;;;;;;6303044;28;20473;-64
2022/11/06 04:17:10;;;;;;;3.60;3.30;;;6.30;99.90;;;;;;6303192;28;21027;-64
2022/11/06 04:23:44;;;;;;;2.83;2.63;;;6.30;99.90;;;;;;6303105;28;20473;-64
2022/11/06 04:26:56;;;;;;;3.53;2.57;;;6.20;99.90;;;;;;6303522;28;20477;-66
2022/11/06 04:30:06;;;;;;;6.33;2.50;;;6.10;99.90;;;;;;6303394;28;20534;-64
2022/11/06 04:33:16;;;;;;;3.17;2.73;;;6.00;99.90;;;;;;6302763;28;20477;-64
2022/11/06 04:36:28;;;;;;;3.43;3.13;;;6.00;99.90;;;;;;6302655;28;20535;-64
2022/11/06 04:39:40;;;;;;;3.73;3.37;;;5.90;99.90;;;;;;6302682;28;20473;-64
2022/11/06 04:42:50;;;;;;;3.53;3.20;;;5.80;99.90;;;;;;6302920;28;20937;-64
2022/11/06 04:45:57;;;;;;;3.33;2.73;;;5.80;99.90;;;;;;6302945;28;20809;-64
2022/11/06 04:49:05;;;;;;;3.87;3.13;;;5.80;99.90;;;;;;6302649;28;20835;-64
2022/11/06 04:52:13;;;;;;;3.10;2.90;;;5.80;99.90;;;;;;6302730;28;20474;-64
2022/11/06 04:55:17;;;;;;;3.43;3.13;;;5.80;99.90;;;;;;6303133;28;20538;-64
2022/11/06 04:58:20;;;;;;;5.17;3.33;;;5.80;99.90;;;;;;6302958;28;20469;-64
2022/11/06 05:01:23;;;;;;;3.70;3.40;;;5.80;99.90;;;;;;6302905;28;20462;-64
2022/11/06 05:04:28;;;;;;;3.73;3.40;;;5.80;99.90;;;;;;6302249;28;20481;-64
2022/11/06 05:07:31;;;;;;;3.63;3.33;;;5.90;99.90;;;;;;6302786;28;20470;-64
2022/11/06 05:10:34;;;;;;;4.50;4.10;;;5.90;99.90;;;;;;6302689;28;20606;-64
2022/11/06 05:13:37;;;;;;;3.70;3.40;;;5.90;99.90;;;;;;6297390;28;20476;-64
2022/11/06 05:16:41;;;;;;;4.27;3.47;;;5.90;99.90;;;;;;6301629;28;20465;-64
2022/11/06 05:19:45;;;;;;;3.10;2.90;;;5.90;99.90;;;;;;6301515;28;20523;-64
2022/11/06 05:23:00;;;;;;;3.20;3.00;;;5.90;99.90;;;;;;6301317;28;20531;-64
2022/11/06 05:26:03;;;;;;;4.13;2.70;;;5.90;99.90;;;;;;6301287;28;20465;-64
2022/11/06 05:29:06;;;;;;;3.30;3.00;;;5.90;99.90;;;;;;6301041;28;20469;-64
2022/11/06 05:32:10;;;;;;;3.20;2.60;;;5.90;99.90;;;;;;6300851;28;20484;-64
2022/11/06 05:35:15;;;;;;;3.33;2.80;;;6.00;99.90;;;;;;6301111;28;20822;-64
2022/11/06 05:38:18;;;;;;;2.77;2.57;;;6.00;99.90;;;;;;6300908;28;20983;-64
2022/11/06 05:41:21;;;;;;;3.40;2.80;;;6.10;99.90;;;;;;6300628;28;20996;-64
2022/11/06 05:44:24;;;;;;;3.40;3.20;;;6.10;99.90;;;;;;6300362;28;20465;-64
2022/11/06 05:47:27;;;;;;;6.80;4.20;;;6.10;99.90;;;;;;6300733;28;20474;-64
2022/11/06 05:50:32;;;;;;;6.80;4.47;;;6.10;99.90;;;;;;6300394;28;20813;-64
2022/11/06 05:53:36;;;;;;;8.63;7.73;;;6.10;99.90;;;;;;6300756;28;20473;-64
2022/11/06 05:56:39;;;;;;;15.83;11.43;;;6.10;99.90;;;;;;6300171;28;20924;-64
2022/11/06 05:59:42;;;;;;;11.50;9.20;;;6.10;99.90;;;;;;6300330;28;20847;-64
2022/11/06 06:02:46;;;;;;;13.47;9.87;;;6.10;99.90;;;;;;6299849;28;20485;-64
2022/11/06 06:05:51;;;;;;;13.23;9.37;;;6.00;99.90;;;;;;6300123;28;20543;-64
2022/11/06 06:08:54;;;;;;;5.80;5.23;;;6.10;99.90;;;;;;6299936;28;20477;-64
2022/11/06 06:11:57;;;;;;;9.43;6.57;;;6.00;99.90;;;;;;6299934;28;20501;-64
2022/11/06 06:15:00;;;;;;;9.70;6.40;;;6.00;99.90;;;;;;6300002;28;20473;-64
2022/11/06 06:18:04;;;;;;;5.70;4.37;;;6.00;99.90;;;;;;6299906;28;20493;-64
2022/11/06 06:21:08;;;;;;;4.07;3.67;;;6.00;99.90;;;;;;6285797;28;20489;-64
2022/11/06 06:24:11;;;;;;;4.00;3.60;;;6.00;99.90;;;;;;6299366;28;20493;-65
2022/11/06 06:27:14;;;;;;;3.57;3.27;;;6.20;99.90;;;;;;6299107;28;20491;-65
2022/11/06 06:30:18;;;;;;;4.30;3.10;;;6.20;99.90;;;;;;6299273;28;20481;-64
2022/11/06 06:33:21;;;;;;;3.60;2.30;;;6.20;99.90;;;;;;6299541;28;20481;-64
2022/11/06 06:36:25;;;;;;;3.33;2.90;;;6.20;99.90;;;;;;6299372;28;20964;-64
2022/11/06 06:39:29;;;;;;;3.53;3.23;;;6.20;99.90;;;;;;6299748;28;20541;-65
2022/11/06 06:42:33;;;;;;;5.17;3.20;;;6.20;99.90;;;;;;6298938;28;20937;-65
2022/11/06 06:45:36;;;;;;;4.00;3.30;;;6.30;99.90;;;;;;6299226;28;20472;-65
2022/11/06 06:48:39;;;;;;;5.20;3.20;;;6.40;99.90;;;;;;6299691;28;20542;-65
2022/11/06 06:51:43;;;;;;;4.17;3.13;;;6.50;99.90;;;;;;6300473;28;20956;-64
2022/11/06 06:54:46;;;;;;;6.93;5.60;;;6.50;99.90;;;;;;6299838;28;20446;-65
2022/11/06 06:57:56;;;;;;;7.13;6.43;;;6.60;99.90;;;;;;6299758;28;20434;-66
2022/11/06 07:01:00;;;;;;;6.77;6.17;;;6.70;99.90;;;;;;6299735;28;20458;-65
2022/11/06 07:04:04;;;;;;;5.90;5.40;;;6.70;99.90;;;;;;6298814;28;20468;-65
2022/11/06 07:07:08;;;;;;;7.07;5.40;;;6.80;99.90;;;;;;6298917;28;20797;-65
2022/11/06 07:10:12;;;;;;;8.50;5.60;;;6.90;99.90;;;;;;6298716;28;20461;-65
2022/11/06 07:13:15;;;;;;;5.77;5.07;;;6.90;99.90;;;;;;6299277;28;20461;-65
2022/11/06 07:16:20;;;;;;;5.73;5.17;;;7.00;99.90;;;;;;6299758;28;20793;-65
2022/11/06 07:19:23;;;;;;;6.23;5.10;;;6.90;99.90;;;;;;6299126;28;20473;-65
2022/11/06 07:22:28;;;;;;;3.60;3.30;;;6.90;99.90;;;;;;6296212;28;20499;-65
2022/11/06 07:25:39;;;;;;;4.37;4.07;;;6.80;99.90;;;;;;6298698;28;20469;-65
2022/11/06 07:28:42;;;;;;;5.83;3.93;;;6.70;99.90;;;;;;6298276;28;20469;-65
2022/11/06 07:31:45;;;;;;;6.57;5.00;;;6.60;99.90;;;;;;6299264;28;20514;-64
2022/11/06 07:34:48;;;;;;;5.03;4.60;;;6.70;99.90;;;;;;6299100;28;20480;-65
2022/11/06 07:37:53;;;;;;;5.43;4.93;;;6.60;99.90;;;;;;6303444;28;20469;-65
2022/11/06 07:41:00;;;;;;;4.67;4.27;;;6.70;99.90;;;;;;6302103;28;20473;-66
2022/11/06 07:44:03;;;;;;;4.03;3.73;;;6.70;99.90;;;;;;6302317;28;20538;-64
2022/11/06 07:47:07;;;;;;;4.70;4.30;;;6.70;99.90;;;;;;6302790;28;20477;-64
2022/11/06 07:50:10;;;;;;;4.90;4.50;;;6.90;99.90;;;;;;6303456;28;20474;-64
2022/11/06 07:53:14;;;;;;;5.57;5.00;;;6.90;99.90;;;;;;6303112;28;20481;-64
2022/11/06 07:56:18;;;;;;;5.50;4.20;;;7.00;99.90;;;;;;6303288;28;20556;-65
2022/11/06 07:59:21;;;;;;;6.30;5.30;;;7.10;99.90;;;;;;6303959;28;20834;-64
2022/11/06 08:02:24;;;;;;;5.00;4.60;;;7.20;99.90;;;;;;6304150;28;20477;-64
2022/11/06 08:05:27;;;;;;;5.73;5.10;;;7.30;99.90;;;;;;6303538;28;20473;-65
2022/11/06 08:08:32;;;;;;;5.33;4.73;;;7.40;99.90;;;;;;6303151;28;20488;-65
2022/11/06 08:11:35;;;;;;;5.17;4.67;;;7.50;99.90;;;;;;6303386;28;20471;-65
2022/11/06 08:14:38;;;;;;;4.17;3.80;;;7.50;99.90;;;;;;6302635;28;20480;-64
2022/11/06 08:17:43;;;;;;;3.60;3.30;;;7.60;99.90;;;;;;6303492;28;20558;-64
2022/11/06 08:20:46;;;;;;;3.83;3.53;;;7.70;99.90;;;;;;6302800;28;20484;-64
2022/11/06 08:23:51;;;;;;;3.57;3.33;;;7.80;99.90;;;;;;6302089;28;20944;-65
2022/11/06 08:26:54;;;;;;;3.67;3.30;;;8.00;99.90;;;;;;6293811;28;20607;-64
2022/11/06 08:29:57;;;;;;;3.20;2.93;;;8.10;99.90;;;;;;6303266;28;20577;-65
2022/11/06 08:33:02;;;;;;;3.30;3.00;;;8.20;99.90;;;;;;6303067;28;20476;-65
2022/11/06 08:36:07;;;;;;;2.90;2.70;;;8.30;99.90;;;;;;6303088;28;20481;-65
2022/11/06 08:39:12;;;;;;;4.13;3.83;;;8.40;99.90;;;;;;6302830;28;20569;-65
2022/11/06 08:42:15;;;;;;;4.60;3.47;;;8.50;99.90;;;;;;6302782;28;20803;-65
2022/11/06 08:45:18;;;;;;;3.80;3.43;;;8.60;99.90;;;;;;6302217;28;20466;-65
2022/11/06 08:48:21;;;;;;;3.53;3.20;;;8.70;99.90;;;;;;6301054;28;20983;-65
2022/11/06 08:51:25;;;;;;;3.13;2.90;;;8.90;99.90;;;;;;6301433;28;20469;-67
2022/11/06 08:54:29;;;;;;;3.97;3.50;;;9.10;99.90;;;;;;6300841;28;20531;-65
2022/11/06 08:57:32;;;;;;;3.57;3.27;;;9.20;99.90;;;;;;6301710;28;20798;-64
2022/11/06 09:00:36;;;;;;;5.10;3.50;;;9.40;99.90;;;;;;6301354;28;20960;-65
2022/11/06 09:03:39;;;;;;;5.00;3.60;;;9.70;99.90;;;;;;6302023;28;20503;-65
2022/11/06 09:06:42;;;;;;;3.57;3.27;;;9.90;99.90;;;;;;6302033;28;20477;-64
2022/11/06 09:09:47;;;;;;;3.17;2.87;;;10.10;99.90;;;;;;6302079;28;20492;-64
2022/11/06 09:12:50;;;;;;;4.33;2.93;;;10.30;99.90;;;;;;6301689;28;20469;-65
2022/11/06 09:15:53;;;;;;;3.47;3.17;;;10.50;99.70;;;;;;6299421;28;20453;-65
2022/11/06 09:18:57;;;;;;;3.10;2.90;;;10.70;99.30;;;;;;6295301;28;20486;-66
2022/11/06 09:22:00;;;;;;;3.53;3.00;;;12.60;99.80;;;;;;6288239;28;20433;-65
2022/11/06 09:25:06;;;;;;;3.07;2.70;;;17.30;93.80;;;;;;6297338;28;20465;-66
2022/11/06 09:28:09;;;;;;;4.13;3.20;;;22.40;70.10;;;;;;6286539;28;20928;-66
2022/11/06 09:31:13;;;;;;;2.87;2.57;;;26.20;51.30;;;;;;6276649;28;20243;-66
2022/11/06 09:34:16;;;;;;;3.20;3.00;;;29.70;40.80;;;;;;6276145;28;20235;-65
2022/11/06 09:37:19;;;;;;;2.92;2.72;;;32.40;32.90;;;;;;6292253;28;20545;-66
2022/11/06 09:40:30;;;;;;;3.22;2.97;;;34.40;28.30;;;;;;6300777;28;20233;-66
2022/11/06 09:43:54;;;;;;;2.70;2.50;;;35.60;26.10;;;;;;6301315;28;20564;-66
2022/11/06 09:47:17;;;;;;;2.45;2.33;;;37.10;23.40;;;;;;6301649;28;20232;-66
2022/11/06 09:50:25;;;;;;;2.58;2.38;;;37.90;21.40;;;;;;6301147;28;20242;-66
2022/11/06 09:53:34;;;;;;;2.50;2.17;;;38.10;20.60;;;;;;6292639;28;20227;-67
2022/11/06 09:56:41;;;;;;;2.83;2.63;;;38.50;20.30;;;;;;6285985;28;20789;-66
2022/11/06 09:59:45;;;;;;;2.75;2.47;;;38.50;19.30;;;;;;6298664;28;20263;-66
2022/11/06 10:02:50;;;;;;;2.92;2.35;;;39.10;19.10;;;;;;6299848;28;20287;-66
2022/11/06 10:05:54;;;;;;;3.20;2.72;;;39.90;18.70;;;;;;6300336;28;20601;-66
2022/11/06 10:09:00;;;;;;;3.22;2.95;;;41.10;18.90;;;;;;6299311;28;20240;-66
2022/11/06 10:12:13;;;;;;;3.78;2.80;;;41.50;17.70;;;;;;6299165;28;20226;-65
2022/11/06 10:15:25;;;;;;;3.22;3.03;;;42.10;17.00;;;;;;6299122;28;20550;-65
2022/11/06 10:18:46;;;;;;;3.88;3.60;;;41.20;16.90;;;;;;6300558;28;20237;-66
2022/11/06 10:21:56;;;;;;;3.15;2.95;;;42.00;16.30;;;;;;6277204;28;20577;-65
2022/11/06 10:25:07;;;;;;;2.92;2.72;;;41.60;16.50;;;;;;6297944;28;20285;-66
2022/11/06 10:28:25;;;;;;;2.53;2.33;;;41.60;16.30;;;;;;6298961;28;20214;-65
2022/11/06 10:31:37;;;;;;;2.80;2.60;;;40.60;16.90;;;;;;6296152;28;20515;-65
2022/11/06 10:34:44;;;;;;;2.80;2.60;;;41.50;16.70;;;;;;6297545;28;20227;-64
2022/11/06 10:37:50;;;;;;;2.40;2.20;;;41.50;16.40;;;;;;6298559;28;20228;-64
2022/11/06 10:40:55;;;;;;;2.60;2.40;;;41.10;16.00;;;;;;6298200;28;20767;-65
2022/11/06 10:44:05;;;;;;;3.05;2.85;;;39.40;16.80;;;;;;6298061;28;20234;-64
2022/11/06 10:47:17;;;;;;;2.78;2.58;;;39.90;16.40;;;;;;6295585;28;20237;-64
2022/11/06 10:50:25;;;;;;;2.63;2.45;;;41.30;16.20;;;;;;6298200;28;20222;-65
2022/11/06 10:53:36;;;;;;;2.58;2.38;;;43.00;15.50;;;;;;6295059;28;20664;-65
2022/11/06 10:56:53;;;;;;;2.95;2.63;;;43.30;15.20;;;;;;6297949;28;20222;-64
2022/11/06 10:59:58;;;;;;;5.13;4.72;;;44.00;14.70;;;;;;6296560;28;20217;-65
2022/11/06 11:03:05;;;;;;;2.70;2.50;;;43.70;14.60;;;;;;6297816;28;20607;-66
2022/11/06 11:06:09;;;;;;;2.80;2.60;;;43.40;15.10;;;;;;6298362;28;20608;-66
2022/11/06 11:09:28;;;;;;;2.65;2.45;;;42.70;14.80;;;;;;6299443;28;20245;-65
2022/11/06 11:12:32;;;;;;;3.13;2.65;;;41.60;15.90;;;;;;6298988;28;20675;-66
2022/11/06 11:15:44;;;;;;;2.70;2.50;;;42.10;15.60;;;;;;6299496;28;20291;-66
2022/11/06 11:18:48;;;;;;;2.60;2.40;;;43.00;14.90;;;;;;6298713;28;20219;-64
2022/11/06 11:21:55;;;;;;;1.90;1.75;;;42.70;14.80;;;;;;6276593;28;20202;-64
2022/11/06 11:25:02;;;;;;;2.50;2.30;;;43.20;14.60;;;;;;6274297;28;20205;-66
2022/11/06 11:28:06;;;;;;;2.20;2.00;;;43.10;14.40;;;;;;6274478;28;20612;-65
2022/11/06 11:31:15;;;;;;;2.25;2.05;;;42.80;14.70;;;;;;6276164;28;20247;-66
2022/11/06 11:34:21;;;;;;;1.73;1.63;;;43.20;13.90;;;;;;6276338;28;20244;-64
2022/11/06 11:37:28;;;;;;;1.80;1.70;;;41.60;14.20;;;;;;6265221;28;20247;-64
2022/11/06 11:40:37;;;;;;;2.20;2.00;;;42.20;14.40;;;;;;6273918;28;20362;-66
2022/11/06 11:43:41;;;;;;;1.83;1.50;;;42.80;13.90;;;;;;6292140;28;20235;-63
2022/11/06 11:46:51;;;;;;;2.30;2.17;;;42.40;14.20;;;;;;6298723;28;20223;-64
2022/11/06 11:49:54;;;;;;;2.10;1.90;;;41.00;14.80;;;;;;6298280;28;20676;-64
2022/11/06 11:53:06;;;;;;;2.50;2.30;;;40.90;14.50;;;;;;6298037;28;20240;-64
2022/11/06 11:56:15;;;;;;;1.65;1.55;;;39.00;15.50;;;;;;6298060;28;20675;-64
2022/11/06 11:59:44;;;;;;;1.98;1.77;;;37.30;15.80;;;;;;6297766;28;20305;-64
2022/11/06 12:02:53;;;;;;;1.80;1.70;;;39.30;15.40;;;;;;6297245;28;20238;-65
2022/11/06 12:06:06;;;;;;;1.80;1.70;;;40.70;14.80;;;;;;6297210;28;20618;-64
2022/11/06 12:09:13;;;;;;;1.75;1.65;;;40.90;14.10;;;;;;6294775;28;20223;-65
2022/11/06 12:12:23;;;;;;;2.28;1.90;;;40.20;14.50;;;;;;6297096;28;20602;-65
2022/11/06 12:15:30;;;;;;;1.92;1.75;;;39.20;15.00;;;;;;6294579;28;20241;-65
2022/11/06 12:18:39;;;;;;;2.53;2.33;;;39.20;15.40;;;;;;6296911;28;20741;-65
2022/11/06 12:21:46;;;;;;;2.40;2.20;;;40.60;14.80;;;;;;6293631;28;20217;-65
2022/11/06 12:24:54;;;;;;;2.60;1.80;;;41.70;13.80;;;;;;6299088;28;20222;-64
2022/11/06 12:28:01;;;;;;;2.55;2.00;;;40.20;14.40;;;;;;6300337;28;20638;-65
2022/11/06 12:31:15;;;;;;;1.48;1.38;;;40.30;14.70;;;;;;6302373;28;20265;-66
2022/11/06 12:34:26;;;;;;;1.90;1.73;;;41.10;14.20;;;;;;6277238;28;20262;-65
2022/11/06 12:37:37;;;;;;;1.85;1.75;;;41.90;13.70;;;;;;6277491;28;20230;-65
2022/11/06 12:40:43;;;;;;;2.45;1.55;;;42.30;13.20;;;;;;6273368;28;20298;-65
2022/11/06 12:43:48;;;;;;;2.35;2.15;;;39.40;14.60;;;;;;6283902;28;20562;-64
2022/11/06 12:46:59;;;;;;;2.00;1.80;;;38.40;16.80;;;;;;6305188;28;20692;-66
2022/11/06 12:50:27;;;;;;;2.10;1.90;;;38.90;16.70;;;;;;6300203;28;20224;-65
2022/11/06 12:53:44;;;;;;;1.85;1.75;;;39.60;16.20;;;;;;6300479;28;20310;-65
2022/11/06 12:56:56;;;;;;;1.70;1.60;;;39.30;16.70;;;;;;6299826;28;20234;-65
2022/11/06 13:00:08;;;;;;;2.42;2.08;;;39.60;16.20;;;;;;6301650;28;20426;-65
2022/11/06 13:03:33;;;;;;;1.80;1.70;;;39.30;16.20;;;;;;6301741;28;20250;-65
2022/11/06 13:06:58;;;;;;;2.05;1.95;;;40.40;15.70;;;;;;6302111;28;20546;-66
2022/11/06 13:10:27;;;;;;;1.55;1.45;;;40.50;15.40;;;;;;6302113;28;20629;-66
2022/11/06 13:13:47;;;;;;;2.22;1.38;;;39.50;15.90;;;;;;6300497;28;20244;-66
2022/11/06 13:17:00;;;;;;;2.03;1.83;;;39.40;15.90;;;;;;6301830;28;20250;-65
2022/11/06 13:20:09;;;;;;;2.13;1.92;;;38.30;16.30;;;;;;6300661;28;20245;-65
2022/11/06 13:23:21;;;;;;;1.85;1.38;;;38.40;16.50;;;;;;6300017;28;20570;-65
2022/11/06 13:26:33;;;;;;;2.00;1.80;;;38.80;16.20;;;;;;6300440;28;20254;-66
2022/11/06 13:29:38;;;;;;;1.90;1.75;;;38.90;16.20;;;;;;6275117;28;20247;-66
2022/11/06 13:32:44;;;;;;;1.70;1.48;;;38.70;15.60;;;;;;6274468;28;20712;-65
2022/11/06 13:35:55;;;;;;;1.92;1.50;;;37.60;16.30;;;;;;6275626;28;20255;-65
2022/11/06 13:39:06;;;;;;;1.58;1.38;;;37.00;16.60;;;;;;6276462;28;20231;-65
2022/11/06 13:42:19;;;;;;;2.00;1.80;;;35.30;17.10;;;;;;6276412;28;20263;-65
2022/11/06 13:45:26;;;;;;;2.80;1.60;;;33.90;17.90;;;;;;6276529;28;20230;-65
2022/11/06 13:48:40;;;;;;;2.28;1.33;;;33.20;18.70;;;;;;6276330;28;20230;-65
2022/11/06 13:51:52;;;;;;;2.17;1.50;;;31.80;19.20;;;;;;6276448;28;20231;-65
2022/11/06 13:55:07;;;;;;;1.70;1.60;;;29.70;21.00;;;;;;6276121;28;20227;-64
2022/11/06 13:58:37;;;;;;;4.10;2.17;;;27.90;22.60;;;;;;6276253;28;20233;-65
2022/11/06 14:01:54;;;;;;;1.43;1.33;;;25.40;25.10;;;;;;6275864;28;20234;-65
2022/11/06 14:05:42;;;;;;;2.00;1.47;;;23.90;26.70;;;;;;6276192;28;20234;-64
2022/11/06 14:08:50;;;;;;;1.70;1.60;;;22.00;28.50;;;;;;6275990;28;20354;-64
2022/11/06 14:12:00;;;;;;;1.63;1.53;;;20.90;30.00;;;;;;6275251;28;20228;-63
2022/11/06 14:15:36;;;;;;;1.60;1.40;;;20.20;31.30;;;;;;6275665;28;20232;-63
2022/11/06 14:18:41;;;;;;;2.30;1.57;;;19.70;33.00;;;;;;6282360;28;20230;-65
2022/11/06 14:21:48;;;;;;;1.90;1.53;;;19.10;33.30;;;;;;6297626;28;20215;-64
2022/11/06 14:24:52;;;;;;;1.80;1.70;;;18.50;34.20;;;;;;6300448;28;20214;-64
2022/11/06 14:28:06;;;;;;;1.67;1.33;;;18.00;35.00;;;;;;6288184;28;20202;-63
2022/11/06 14:31:11;;;;;;;1.67;1.57;;;17.60;35.90;;;;;;6288190;28;20458;-64
2022/11/06 14:34:28;;;;;;;1.73;1.30;;;17.30;36.40;;;;;;6300082;28;20944;-64
2022/11/06 14:37:49;;;;;;;1.73;1.20;;;17.20;36.80;;;;;;6299428;28;20512;-64
2022/11/06 14:40:53;;;;;;;1.40;1.30;;;17.00;36.80;;;;;;6298597;28;20484;-65
2022/11/06 14:43:59;;;;;;;1.30;1.20;;;16.90;37.20;;;;;;6296013;28;20551;-65
2022/11/06 14:47:09;;;;;;;1.63;1.53;;;16.80;37.70;;;;;;6291976;28;20473;-65
2022/11/06 14:50:25;;;;;;;2.27;1.40;;;16.60;38.10;;;;;;6299153;28;20476;-64
2022/11/06 14:53:34;;;;;;;1.60;1.50;;;16.40;38.90;;;;;;6298542;28;20626;-63
2022/11/06 14:56:38;;;;;;;2.30;1.40;;;16.30;38.60;;;;;;6299792;28;20488;-65
2022/11/06 14:59:43;;;;;;;2.03;1.50;;;16.30;39.00;;;;;;6298664;28;20479;-65
2022/11/06 15:02:48;;;;;;;1.87;1.50;;;16.20;38.90;;;;;;6298808;28;20469;-65
2022/11/06 15:05:57;;;;;;;1.73;1.40;;;16.10;39.60;;;;;;6298072;28;20485;-65
2022/11/06 15:09:03;;;;;;;2.63;1.70;;;15.80;40.70;;;;;;6298695;28;20552;-64
2022/11/06 15:12:08;;;;;;;7.37;2.87;;;15.60;41.10;;;;;;6296387;28;20481;-63
2022/11/06 15:15:18;;;;;;;2.20;2.00;;;15.30;41.80;;;;;;6299189;28;20477;-64
2022/11/06 15:18:24;;;;;;;2.50;2.40;;;15.20;42.20;;;;;;6299431;28;20504;-65
2022/11/06 15:21:32;;;;;;;1.90;1.70;;;15.10;42.70;;;;;;6293393;28;20470;-65
2022/11/06 15:24:41;;;;;;;2.33;2.00;;;15.00;43.20;;;;;;6296273;28;20531;-64
2022/11/06 15:27:52;;;;;;;1.97;1.70;;;14.90;43.30;;;;;;6298846;28;20446;-63
2022/11/06 15:31:01;;;;;;;2.17;1.97;;;14.60;44.10;;;;;;6299192;28;20484;-66
2022/11/06 15:34:08;;;;;;;1.70;1.57;;;14.50;44.40;;;;;;6299449;28;20462;-65
2022/11/06 15:37:15;;;;;;;1.70;1.60;;;14.50;45.50;;;;;;6299742;28;20537;-65
2022/11/06 15:40:29;;;;;;;1.80;1.60;;;14.40;46.10;;;;;;6299189;28;20480;-66
2022/11/06 15:43:36;;;;;;;3.67;3.23;;;14.40;46.40;;;;;;6298736;28;20999;-64
2022/11/06 15:46:52;;;;;;;3.47;3.17;;;14.50;47.40;;;;;;6298450;28;20798;-64
2022/11/06 15:50:14;;;;;;;3.50;2.70;;;14.40;47.30;;;;;;6308850;28;20472;-64
2022/11/06 15:53:22;;;;;;;3.10;2.80;;;14.40;47.60;;;;;;6302098;28;20976;-64
2022/11/06 15:56:32;;;;;;;4.37;3.47;;;14.40;48.10;;;;;;6296731;28;20837;-64
2022/11/06 15:59:37;;;;;;;3.50;3.20;;;14.30;48.50;;;;;;6303768;28;20464;-64
2022/11/06 16:02:52;;;;;;;3.93;3.30;;;14.30;49.00;;;;;;6302057;28;20994;-64
2022/11/06 16:05:58;;;;;;;4.03;3.70;;;14.30;49.70;;;;;;6302580;28;20481;-64
2022/11/06 16:09:05;;;;;;;10.80;7.30;;;14.20;50.10;;;;;;6303275;28;20474;-64
2022/11/06 16:12:13;;;;;;;12.57;11.40;;;14.20;50.50;;;;;;6303322;28;20487;-64
2022/11/06 16:15:48;;;;;;;22.40;19.93;;;14.10;50.80;;;;;;6302202;28;20483;-64
2022/11/06 16:18:57;;;;;;;29.10;25.50;;;14.10;51.20;;;;;;6302062;28;20488;-64
2022/11/06 16:22:04;;;;;;;20.63;18.43;;;14.10;51.50;;;;;;6278015;28;20434;-64
2022/11/06 16:25:17;;;;;;;12.37;9.17;;;14.10;52.00;;;;;;6276678;28;20603;-64
2022/11/06 16:28:23;;;;;;;7.63;6.67;;;14.00;52.40;;;;;;6278299;28;20489;-64
2022/11/06 16:31:28;;;;;;;10.67;9.03;;;13.90;53.00;;;;;;6278000;28;20733;-64
2022/11/06 16:34:42;;;;;;;7.97;7.20;;;13.80;53.50;;;;;;6278232;28;20485;-64
2022/11/06 16:37:46;;;;;;;7.57;6.77;;;13.70;54.20;;;;;;6277475;28;20474;-64